Time;durP1;ratioP1;P1;durP2;ratioP2;P2;SDS_P1;SDS_P2;PMS_P1;PMS_P2;Temp;Humidity;BMP_temperature;BMP_pressure;BME280_temperature;BME280_humidity;BME280_pressure;Samples;Min_cycle;Max_cycle;Signal;HPM_P1;HPM_P2
2021/05/03 00:01:59;;;;;;;3.87;3.47;;;11.20;99.90;;;;;;5073203;28;20550;-68
2021/05/03 00:04:25;;;;;;;5.40;3.50;;;11.20;99.90;;;;;;5073471;28;20236;-69
2021/05/03 00:06:50;;;;;;;4.23;3.73;;;11.30;99.90;;;;;;5073823;28;20173;-69
2021/05/03 00:09:16;;;;;;;4.43;3.87;;;11.20;99.90;;;;;;5077186;28;20232;-69
2021/05/03 00:11:41;;;;;;;3.73;3.30;;;11.10;99.90;;;;;;5076808;28;20634;-70
2021/05/03 00:14:07;;;;;;;4.73;3.90;;;11.10;99.90;;;;;;5077109;28;20556;-68
2021/05/03 00:16:33;;;;;;;5.63;4.17;;;11.20;99.90;;;;;;5076900;28;20212;-69
2021/05/03 00:18:58;;;;;;;5.10;3.70;;;11.10;99.90;;;;;;5075342;28;20254;-68
2021/05/03 00:21:24;;;;;;;4.57;4.00;;;11.10;99.90;;;;;;5076664;28;20426;-68
2021/05/03 00:23:50;;;;;;;4.03;3.40;;;11.10;99.90;;;;;;5076806;28;20276;-69
2021/05/03 00:26:16;;;;;;;3.60;3.30;;;11.20;99.90;;;;;;5075391;28;20185;-69
2021/05/03 00:28:42;;;;;;;3.97;3.50;;;11.20;99.90;;;;;;5076654;28;20499;-69
2021/05/03 00:31:08;;;;;;;4.70;4.10;;;11.20;99.90;;;;;;5076617;28;20173;-69
2021/05/03 00:33:34;;;;;;;5.10;3.97;;;11.20;99.90;;;;;;5092170;28;20284;-68
2021/05/03 00:35:59;;;;;;;4.40;3.80;;;11.10;99.90;;;;;;5075085;28;20697;-69
2021/05/03 00:38:25;;;;;;;5.40;4.63;;;11.10;99.90;;;;;;5075068;28;20566;-69
2021/05/03 00:40:51;;;;;;;4.07;3.60;;;11.00;99.90;;;;;;5075079;28;20555;-69
2021/05/03 00:43:20;;;;;;;4.90;4.27;;;11.00;99.90;;;;;;5076386;28;20193;-69
2021/05/03 00:45:50;;;;;;;6.43;4.43;;;10.90;99.90;;;;;;5076248;28;20169;-69
2021/05/03 00:48:16;;;;;;;4.55;4.10;;;11.00;99.90;;;;;;5074679;28;20233;-69
2021/05/03 00:50:43;;;;;;;4.60;4.20;;;11.00;99.90;;;;;;5076178;28;20177;-69
2021/05/03 00:53:09;;;;;;;5.22;4.72;;;10.90;99.90;;;;;;5074818;28;20197;-68
2021/05/03 00:55:35;;;;;;;5.35;4.05;;;11.00;99.90;;;;;;5076095;28;20201;-68
2021/05/03 00:58:03;;;;;;;4.93;4.13;;;11.00;99.90;;;;;;5074638;28;20193;-69
2021/05/03 01:00:29;;;;;;;5.70;4.95;;;11.00;99.90;;;;;;5076090;28;20650;-69
2021/05/03 01:02:55;;;;;;;4.85;4.15;;;11.00;99.90;;;;;;5075881;28;20196;-69
2021/05/03 01:05:21;;;;;;;5.73;4.80;;;11.10;99.90;;;;;;5076062;28;20177;-69
2021/05/03 01:07:48;;;;;;;4.50;4.10;;;11.00;99.90;;;;;;5075827;28;20558;-69
2021/05/03 01:10:14;;;;;;;5.70;4.53;;;11.00;99.90;;;;;;5075855;28;20915;-69
2021/05/03 01:12:41;;;;;;;5.78;4.40;;;11.10;99.90;;;;;;5075539;28;20204;-69
2021/05/03 01:15:11;;;;;;;5.15;4.43;;;11.20;99.90;;;;;;5075892;28;20743;-69
2021/05/03 01:17:40;;;;;;;5.82;4.80;;;11.30;99.90;;;;;;5074544;28;20564;-69
2021/05/03 01:20:13;;;;;;;6.15;5.07;;;11.20;99.90;;;;;;5075690;28;20189;-69
2021/05/03 01:22:39;;;;;;;7.20;5.07;;;11.30;99.90;;;;;;5075357;28;20268;-69
2021/05/03 01:25:07;;;;;;;6.03;4.93;;;11.20;99.90;;;;;;5075556;28;20184;-69
2021/05/03 01:27:34;;;;;;;6.00;5.00;;;11.20;99.90;;;;;;5075433;28;20184;-69
2021/05/03 01:30:00;;;;;;;5.82;4.82;;;11.20;99.90;;;;;;5074359;28;20268;-68
2021/05/03 01:32:27;;;;;;;5.30;4.80;;;11.10;99.90;;;;;;5075435;28;20181;-68
2021/05/03 01:34:52;;;;;;;6.20;5.30;;;11.00;99.90;;;;;;5075858;28;20533;-68
2021/05/03 01:37:18;;;;;;;6.40;5.30;;;11.10;99.90;;;;;;5075220;28;20177;-68
2021/05/03 01:39:43;;;;;;;6.80;5.60;;;11.10;99.90;;;;;;5075866;28;20184;-68
2021/05/03 01:42:09;;;;;;;6.40;5.07;;;11.00;99.90;;;;;;5075235;28;20219;-70
2021/05/03 01:44:35;;;;;;;4.93;4.27;;;11.00;99.90;;;;;;5075495;28;20193;-69
2021/05/03 01:47:01;;;;;;;6.17;4.97;;;11.10;99.90;;;;;;5075057;28;20227;-69
2021/05/03 01:49:27;;;;;;;6.32;5.03;;;11.10;99.90;;;;;;5073953;28;20212;-68
2021/05/03 01:51:53;;;;;;;6.70;4.60;;;11.00;99.90;;;;;;5073761;28;20181;-68
2021/05/03 01:54:19;;;;;;;5.00;4.50;;;11.00;99.90;;;;;;5090661;28;21082;-69
2021/05/03 01:56:45;;;;;;;5.83;4.50;;;11.00;99.90;;;;;;5073605;28;20450;-68
2021/05/03 01:59:10;;;;;;;5.85;5.18;;;11.00;99.90;;;;;;5075126;28;20553;-68
2021/05/03 02:01:40;;;;;;;6.57;5.50;;;10.90;99.90;;;;;;5074818;28;20184;-68
2021/05/03 02:04:09;;;;;;;6.70;5.30;;;10.80;99.90;;;;;;5075202;28;20659;-69
2021/05/03 02:06:38;;;;;;;6.95;5.45;;;10.70;99.90;;;;;;5073492;28;20181;-69
2021/05/03 02:09:11;;;;;;;7.07;5.35;;;10.70;99.90;;;;;;5074852;28;20197;-68
2021/05/03 02:11:39;;;;;;;5.63;5.10;;;10.60;99.90;;;;;;5074574;28;20169;-69
2021/05/03 02:14:05;;;;;;;5.60;5.00;;;10.70;99.90;;;;;;5074768;28;20258;-69
2021/05/03 02:16:31;;;;;;;6.78;5.35;;;10.70;99.90;;;;;;5073179;28;20219;-68
2021/05/03 02:18:56;;;;;;;5.77;5.17;;;10.70;99.90;;;;;;5074669;28;20611;-69
2021/05/03 02:21:22;;;;;;;6.00;4.90;;;10.70;99.90;;;;;;5074412;28;20177;-69
2021/05/03 02:23:48;;;;;;;7.60;4.87;;;10.60;99.90;;;;;;5074481;28;20727;-69
2021/05/03 02:26:14;;;;;;;6.00;5.30;;;10.70;99.90;;;;;;5074493;28;20184;-69
2021/05/03 02:28:39;;;;;;;5.05;4.55;;;10.80;99.90;;;;;;5074193;28;20201;-69
2021/05/03 02:31:05;;;;;;;6.97;5.30;;;10.70;99.90;;;;;;5074347;28;20272;-68
2021/05/03 02:33:31;;;;;;;7.47;5.50;;;10.70;99.90;;;;;;5074316;28;20204;-69
2021/05/03 02:35:57;;;;;;;8.30;6.07;;;10.70;99.90;;;;;;5074136;28;20694;-68
2021/05/03 02:38:24;;;;;;;5.97;5.37;;;10.70;99.90;;;;;;5074150;28;20216;-68
2021/05/03 02:40:49;;;;;;;6.60;4.93;;;10.60;99.90;;;;;;5074098;28;20402;-69
2021/05/03 02:43:15;;;;;;;6.70;4.90;;;10.60;99.90;;;;;;5074132;28;20193;-68
2021/05/03 02:45:41;;;;;;;7.43;5.03;;;10.60;99.90;;;;;;5074044;28;20177;-69
2021/05/03 02:48:07;;;;;;;6.33;4.70;;;10.50;99.90;;;;;;5073650;28;20293;-69
2021/05/03 02:50:32;;;;;;;7.77;6.27;;;10.40;99.90;;;;;;5074030;28;20542;-68
2021/05/03 02:52:58;;;;;;;5.70;4.27;;;10.50;99.90;;;;;;5073854;28;20437;-69
2021/05/03 02:55:24;;;;;;;5.83;5.23;;;10.40;99.90;;;;;;5073895;28;20201;-68
2021/05/03 02:57:50;;;;;;;7.87;5.97;;;10.40;99.90;;;;;;5072508;28;20216;-69
2021/05/03 03:00:22;;;;;;;7.13;5.60;;;10.40;99.90;;;;;;5073856;28;20577;-69
2021/05/03 03:02:48;;;;;;;6.80;5.50;;;10.30;99.90;;;;;;5073754;28;20231;-68
2021/05/03 03:05:14;;;;;;;9.77;5.55;;;10.30;99.90;;;;;;5073812;28;20177;-69
2021/05/03 03:07:40;;;;;;;6.93;5.33;;;10.30;99.90;;;;;;5073646;28;20193;-68
2021/05/03 03:10:07;;;;;;;8.30;6.77;;;10.30;99.90;;;;;;5073750;28;20398;-68
2021/05/03 03:12:34;;;;;;;7.18;5.55;;;10.30;99.90;;;;;;5072472;28;20264;-68
2021/05/03 03:15:00;;;;;;;7.43;5.63;;;10.30;99.90;;;;;;5074302;28;20204;-68
2021/05/03 03:17:25;;;;;;;8.13;6.18;;;10.30;99.90;;;;;;5073615;28;20177;-68
2021/05/03 03:19:51;;;;;;;9.30;5.17;;;10.40;99.90;;;;;;5072631;28;20221;-68
2021/05/03 03:22:16;;;;;;;7.93;6.50;;;10.40;99.90;;;;;;5073607;28;20173;-69
2021/05/03 03:24:42;;;;;;;8.63;5.90;;;10.40;99.90;;;;;;5074178;28;20177;-69
2021/05/03 03:27:08;;;;;;;7.87;6.47;;;10.50;99.90;;;;;;5073609;28;20650;-68
2021/05/03 03:29:34;;;;;;;9.77;6.00;;;10.40;99.90;;;;;;5072328;28;20200;-69
2021/05/03 03:31:59;;;;;;;6.83;5.60;;;10.40;99.90;;;;;;5073500;28;20191;-69
2021/05/03 03:34:25;;;;;;;7.83;6.67;;;10.40;99.90;;;;;;5073737;28;20521;-68
2021/05/03 03:36:50;;;;;;;8.10;5.93;;;10.40;99.90;;;;;;5073474;28;20181;-68
2021/05/03 03:39:16;;;;;;;9.43;6.43;;;10.50;99.90;;;;;;5073745;28;20275;-69
2021/05/03 03:41:42;;;;;;;8.70;6.50;;;10.50;99.90;;;;;;5075342;28;20260;-69
2021/05/03 03:44:09;;;;;;;8.40;6.47;;;10.60;99.90;;;;;;5077629;28;20250;-68
2021/05/03 03:46:34;;;;;;;6.57;5.97;;;10.50;99.90;;;;;;5076197;28;20181;-69
2021/05/03 03:49:00;;;;;;;7.60;6.20;;;10.50;99.90;;;;;;5077627;28;20239;-69
2021/05/03 03:51:25;;;;;;;9.30;7.20;;;10.60;99.90;;;;;;5076144;28;20231;-70
2021/05/03 03:53:52;;;;;;;7.00;5.40;;;10.80;99.90;;;;;;5077364;28;20233;-68
2021/05/03 03:56:19;;;;;;;8.38;5.78;;;10.80;99.90;;;;;;5083921;28;20258;-68
2021/05/03 03:58:45;;;;;;;6.97;5.95;;;10.70;99.90;;;;;;5095816;28;20204;-68
2021/05/03 04:01:12;;;;;;;8.25;7.07;;;10.80;99.90;;;;;;5097441;28;20698;-68
2021/05/03 04:03:46;;;;;;;7.85;5.88;;;10.80;99.90;;;;;;5096023;28;20256;-69
2021/05/03 04:06:33;;;;;;;8.13;6.63;;;10.90;99.90;;;;;;5097346;28;20618;-69
2021/05/03 04:09:11;;;;;;;8.63;6.60;;;10.90;99.90;;;;;;5097518;28;20204;-70
2021/05/03 04:27:08;;;;;;;7.93;6.32;;;11.20;99.90;;;;;;5097150;28;20194;-69
2021/05/03 04:29:34;;;;;;;8.83;6.90;;;11.30;99.90;;;;;;5097187;28;20275;-68
2021/05/03 04:31:59;;;;;;;10.23;7.07;;;11.30;99.90;;;;;;5096697;28;20247;-70
2021/05/03 04:34:26;;;;;;;8.83;6.17;;;11.30;99.90;;;;;;5096214;28;20242;-68
2021/05/03 04:36:51;;;;;;;7.50;6.28;;;11.40;99.90;;;;;;5096394;28;20183;-69
2021/05/03 04:39:17;;;;;;;7.93;5.73;;;12.30;99.90;;;;;;5095351;28;20204;-69
2021/05/03 04:41:42;;;;;;;9.17;6.63;;;12.80;99.90;;;;;;5096666;28;20238;-69
2021/05/03 04:44:08;;;;;;;7.63;6.70;;;12.90;99.90;;;;;;5096865;28;20188;-69
2021/05/03 04:46:34;;;;;;;7.20;5.70;;;12.90;99.90;;;;;;5096671;28;20184;-69
2021/05/03 04:48:59;;;;;;;8.57;6.70;;;13.00;99.90;;;;;;5096169;28;20249;-69
2021/05/03 04:51:25;;;;;;;9.33;7.00;;;13.10;99.90;;;;;;5091607;28;20248;-70
2021/05/03 04:53:50;;;;;;;6.20;5.47;;;13.30;99.90;;;;;;5086475;28;20204;-69
2021/05/03 04:56:16;;;;;;;8.30;6.30;;;13.60;99.90;;;;;;5095053;28;20204;-69
2021/05/03 04:58:41;;;;;;;6.67;4.80;;;13.90;99.90;;;;;;5095618;28;20262;-68
2021/05/03 05:01:07;;;;;;;8.03;5.80;;;14.00;99.90;;;;;;5094962;28;20176;-70
2021/05/03 05:03:33;;;;;;;8.07;7.10;;;14.40;99.90;;;;;;5090057;28;20192;-68
2021/05/03 05:05:58;;;;;;;9.00;7.50;;;14.60;99.90;;;;;;5091389;28;20176;-69
2021/05/03 05:08:24;;;;;;;15.20;9.63;;;13.30;99.90;;;;;;5094629;28;20212;-69
2021/05/03 05:10:50;;;;;;;23.93;10.60;;;12.70;99.90;;;;;;5093346;28;20616;-69
2021/05/03 05:13:16;;;;;;;14.40;9.67;;;12.40;99.90;;;;;;5092462;28;20562;-69
2021/05/03 05:15:41;;;;;;;8.40;7.20;;;12.10;99.90;;;;;;5092534;28;20457;-70
2021/05/03 05:18:08;;;;;;;8.70;7.13;;;12.30;99.90;;;;;;5089142;28;20215;-69
2021/05/03 05:20:34;;;;;;;9.85;7.65;;;12.30;99.90;;;;;;5077865;28;20177;-69
2021/05/03 05:23:04;;;;;;;6.75;6.05;;;12.00;99.90;;;;;;5093626;28;20199;-69
2021/05/03 05:25:29;;;;;;;8.70;6.57;;;11.80;99.90;;;;;;5086524;28;20546;-69
2021/05/03 05:27:55;;;;;;;11.03;7.73;;;12.00;99.90;;;;;;5080202;28;20205;-69
2021/05/03 05:30:21;;;;;;;9.27;7.57;;;12.10;99.90;;;;;;5082048;28;20558;-70
2021/05/03 05:32:46;;;;;;;7.87;6.50;;;12.00;99.90;;;;;;5094670;28;20677;-69
2021/05/03 05:35:12;;;;;;;11.40;8.10;;;12.00;99.90;;;;;;5090744;28;20461;-70
2021/05/03 05:37:37;;;;;;;8.80;7.17;;;12.10;99.90;;;;;;5092455;28;20200;-70
2021/05/03 05:40:05;;;;;;;7.07;6.30;;;12.10;99.90;;;;;;5092629;28;20188;-70
2021/05/03 05:42:30;;;;;;;8.70;6.77;;;12.10;99.90;;;;;;5092299;28;20206;-69
2021/05/03 05:44:56;;;;;;;7.77;6.63;;;12.10;99.90;;;;;;5093694;28;20520;-70
2021/05/03 05:47:21;;;;;;;8.10;6.30;;;12.30;99.90;;;;;;5090007;28;20251;-69
2021/05/03 05:49:47;;;;;;;11.20;7.00;;;12.30;99.90;;;;;;5093958;28;20176;-69
2021/05/03 05:52:13;;;;;;;10.40;7.50;;;12.30;99.90;;;;;;5092711;28;20181;-70
2021/05/03 05:54:38;;;;;;;9.53;7.60;;;12.40;99.90;;;;;;5094856;28;20219;-69
2021/05/03 05:57:04;;;;;;;9.37;7.50;;;12.30;99.90;;;;;;5094663;28;20287;-69
2021/05/03 05:59:30;;;;;;;9.87;7.60;;;12.30;99.90;;;;;;5094991;28;20249;-69
2021/05/03 06:01:56;;;;;;;8.53;6.30;;;12.40;99.90;;;;;;5094363;28;20444;-70
2021/05/03 06:04:21;;;;;;;9.20;7.33;;;12.40;99.90;;;;;;5094775;28;20872;-69
2021/05/03 06:06:47;;;;;;;8.10;6.97;;;12.60;99.90;;;;;;5094647;28;20176;-71
2021/05/03 06:09:12;;;;;;;7.57;6.73;;;12.60;99.90;;;;;;5094216;28;20232;-69
2021/05/03 06:11:38;;;;;;;9.20;6.90;;;12.60;99.90;;;;;;5094805;28;20625;-71
2021/05/03 06:14:04;;;;;;;8.50;6.30;;;12.70;99.90;;;;;;5095103;28;20200;-69
2021/05/03 06:16:30;;;;;;;9.50;7.27;;;12.90;99.90;;;;;;5094378;28;20700;-69
2021/05/03 06:18:55;;;;;;;8.27;7.07;;;13.10;99.90;;;;;;5094866;28;20249;-69
2021/05/03 06:21:21;;;;;;;6.87;6.17;;;13.30;99.90;;;;;;5094658;28;20402;-70
2021/05/03 06:23:47;;;;;;;11.10;7.20;;;13.40;99.90;;;;;;5090431;28;20668;-69
2021/05/03 06:26:12;;;;;;;9.40;6.60;;;13.60;99.90;;;;;;5091712;28;20187;-70
2021/05/03 06:28:38;;;;;;;9.30;7.53;;;13.70;99.90;;;;;;5091170;28;20200;-70
2021/05/03 06:31:04;;;;;;;7.90;6.00;;;13.70;99.90;;;;;;5088076;28;20429;-70
2021/05/03 06:33:30;;;;;;;7.90;6.40;;;13.60;99.90;;;;;;5089850;28;20283;-70
2021/05/03 06:35:55;;;;;;;8.40;6.53;;;13.80;99.90;;;;;;5091066;28;20212;-70
2021/05/03 06:38:21;;;;;;;8.80;6.20;;;13.80;99.90;;;;;;5076436;28;20334;-69
2021/05/03 06:40:48;;;;;;;6.53;5.80;;;14.10;99.90;;;;;;5084854;28;20281;-70
2021/05/03 06:43:14;;;;;;;6.87;5.47;;;14.10;99.90;;;;;;5074358;28;20200;-70
2021/05/03 06:45:40;;;;;;;5.70;5.17;;;14.20;99.90;;;;;;5069886;28;20429;-70
2021/05/03 06:48:08;;;;;;;7.40;6.07;;;14.30;99.90;;;;;;5062257;28;20473;-69
2021/05/03 06:50:35;;;;;;;9.63;6.70;;;14.30;99.90;;;;;;5063984;28;20789;-70
2021/05/03 06:53:00;;;;;;;5.03;4.50;;;14.20;99.90;;;;;;5066509;28;20453;-70
2021/05/03 06:55:26;;;;;;;12.90;5.03;;;14.10;99.90;;;;;;5070145;28;20470;-70
2021/05/03 06:57:51;;;;;;;7.17;5.00;;;14.20;99.90;;;;;;5065646;28;20556;-69
2021/05/03 07:00:17;;;;;;;6.77;4.63;;;14.50;99.90;;;;;;5065737;28;20192;-71
2021/05/03 07:02:43;;;;;;;9.10;5.13;;;14.70;99.90;;;;;;5066320;28;20292;-70
2021/05/03 07:05:12;;;;;;;5.87;4.80;;;14.80;99.90;;;;;;5077163;28;20197;-71
2021/05/03 07:07:39;;;;;;;6.13;4.67;;;15.00;99.90;;;;;;5074014;28;21019;-70
2021/05/03 07:10:06;;;;;;;9.73;5.40;;;15.00;99.90;;;;;;5065314;28;20444;-71
2021/05/03 07:12:35;;;;;;;7.67;4.80;;;15.20;99.90;;;;;;5072809;28;20449;-70
2021/05/03 07:15:01;;;;;;;5.10;4.47;;;15.30;99.90;;;;;;5064510;28;20899;-70
2021/05/03 07:17:27;;;;;;;6.63;4.70;;;15.20;99.90;;;;;;5067953;28;20540;-71
2021/05/03 07:19:52;;;;;;;5.50;5.00;;;15.10;99.90;;;;;;5063099;28;20193;-70
2021/05/03 07:22:18;;;;;;;12.40;5.10;;;15.30;99.90;;;;;;5077642;28;20193;-70
2021/05/03 07:24:44;;;;;;;6.10;4.20;;;15.40;99.90;;;;;;5064471;28;20185;-70
2021/05/03 07:27:11;;;;;;;6.90;5.40;;;15.40;99.90;;;;;;5072558;28;20188;-70
2021/05/03 07:29:38;;;;;;;6.80;4.97;;;15.50;99.90;;;;;;5061191;28;20245;-70
2021/05/03 07:32:04;;;;;;;8.03;4.43;;;15.40;99.90;;;;;;5066267;28;20473;-70
2021/05/03 07:34:30;;;;;;;5.80;4.47;;;15.50;99.90;;;;;;5067376;28;20522;-70
2021/05/03 07:36:56;;;;;;;6.37;4.23;;;15.50;99.90;;;;;;5072912;28;20929;-70
2021/05/03 07:39:21;;;;;;;14.23;4.80;;;15.60;99.90;;;;;;5063442;28;20355;-70
2021/05/03 07:41:47;;;;;;;7.83;4.20;;;15.60;99.90;;;;;;5064732;28;20949;-72
2021/05/03 07:44:13;;;;;;;6.33;3.80;;;15.90;99.90;;;;;;5060710;28;20300;-70
2021/05/03 07:46:38;;;;;;;4.23;3.87;;;16.00;99.90;;;;;;5070889;28;20192;-71
2021/05/03 07:49:05;;;;;;;5.13;4.60;;;16.00;99.90;;;;;;5062332;28;20278;-71
2021/05/03 07:51:32;;;;;;;5.10;4.40;;;15.80;99.90;;;;;;5065013;28;20596;-70
2021/05/03 07:53:59;;;;;;;4.20;3.80;;;15.70;99.90;;;;;;5068297;28;20454;-70
2021/05/03 07:56:31;;;;;;;4.67;4.20;;;15.80;99.90;;;;;;5068568;28;21006;-70
2021/05/03 07:58:57;;;;;;;10.53;5.07;;;16.10;99.90;;;;;;5064700;28;20592;-71
2021/05/03 08:01:23;;;;;;;5.57;4.17;;;16.40;99.50;;;;;;5072574;28;20424;-70
2021/05/03 08:03:48;;;;;;;6.73;5.10;;;16.30;98.60;;;;;;5068486;28;20461;-70
2021/05/03 08:06:14;;;;;;;6.90;3.93;;;16.20;98.90;;;;;;5071145;28;20199;-71
2021/05/03 08:08:45;;;;;;;5.20;3.50;;;16.30;98.50;;;;;;5063304;28;20240;-70
2021/05/03 08:11:13;;;;;;;11.50;3.73;;;16.00;96.60;;;;;;5069655;28;20425;-70
2021/05/03 08:13:39;;;;;;;8.23;4.30;;;16.10;96.30;;;;;;5070960;28;21027;-70
2021/05/03 08:16:09;;;;;;;5.23;3.70;;;16.00;95.10;;;;;;5066411;28;21104;-71
2021/05/03 08:18:34;;;;;;;5.73;4.13;;;16.20;95.40;;;;;;5065636;28;21390;-70
2021/05/03 08:21:00;;;;;;;6.33;4.70;;;16.10;94.80;;;;;;5066542;28;20449;-70
2021/05/03 08:23:26;;;;;;;7.40;3.90;;;16.10;93.70;;;;;;5069947;28;20803;-69
2021/05/03 08:25:54;;;;;;;4.30;3.90;;;16.10;94.20;;;;;;5083932;28;20237;-70
2021/05/03 08:28:20;;;;;;;6.80;4.33;;;16.60;94.70;;;;;;5068322;28;20450;-70
2021/05/03 08:30:47;;;;;;;6.20;4.67;;;16.40;96.20;;;;;;5070488;28;20429;-70
2021/05/03 08:33:13;;;;;;;6.93;4.93;;;16.50;96.50;;;;;;5072572;28;20624;-70
2021/05/03 08:35:38;;;;;;;5.63;4.60;;;15.90;96.40;;;;;;5072135;28;20478;-71
2021/05/03 08:38:05;;;;;;;5.10;4.60;;;15.60;97.00;;;;;;5069582;28;20461;-70
2021/05/03 08:40:32;;;;;;;10.63;4.30;;;15.70;95.50;;;;;;5070597;28;20200;-70
2021/05/03 08:43:01;;;;;;;6.50;3.93;;;16.50;96.50;;;;;;5071232;28;20449;-71
2021/05/03 08:45:27;;;;;;;6.30;3.93;;;17.20;95.40;;;;;;5071611;28;20521;-71
2021/05/03 08:48:14;;;;;;;5.00;4.00;;;17.80;96.90;;;;;;5070385;28;20927;-70
2021/05/03 08:50:51;;;;;;;6.03;3.50;;;17.30;92.50;;;;;;5073510;28;20181;-70
2021/05/03 08:53:25;;;;;;;4.30;3.80;;;17.30;98.40;;;;;;5074046;28;20571;-70
2021/05/03 08:55:50;;;;;;;4.03;3.63;;;17.70;97.40;;;;;;5074572;28;20517;-70
2021/05/03 08:58:16;;;;;;;6.50;3.83;;;17.40;93.40;;;;;;5068914;28;21008;-70
2021/05/03 09:00:42;;;;;;;5.53;3.70;;;17.80;96.40;;;;;;5070280;28;20193;-71
2021/05/03 09:03:11;;;;;;;5.63;3.40;;;17.40;92.10;;;;;;5071882;28;20541;-69
2021/05/03 09:05:38;;;;;;;12.30;3.80;;;17.70;91.50;;;;;;5074117;28;20642;-71
2021/05/03 09:08:04;;;;;;;6.73;3.77;;;17.70;96.00;;;;;;5069806;28;20461;-70
2021/05/03 09:10:31;;;;;;;4.63;2.90;;;18.20;91.90;;;;;;5067098;28;20467;-71
2021/05/03 09:13:10;;;;;;;8.17;3.53;;;18.70;98.10;;;;;;5073691;28;20547;-69
2021/05/03 09:15:36;;;;;;;3.43;2.90;;;18.20;86.30;;;;;;5069806;28;20476;-70
2021/05/03 09:18:02;;;;;;;4.17;2.67;;;17.70;84.30;;;;;;5071155;28;20858;-70
2021/05/03 09:20:28;;;;;;;4.23;3.80;;;17.10;84.80;;;;;;5068751;28;20470;-70
2021/05/03 09:23:16;;;;;;;3.67;3.07;;;16.80;84.40;;;;;;5069551;28;20329;-70
2021/05/03 09:25:49;;;;;;;3.50;3.20;;;16.50;86.30;;;;;;5072109;28;20858;-70
2021/05/03 09:28:20;;;;;;;5.53;3.40;;;16.30;86.40;;;;;;5091663;28;21532;-70
2021/05/03 09:30:49;;;;;;;4.07;2.70;;;16.40;87.00;;;;;;5070174;28;20434;-70
2021/05/03 09:33:19;;;;;;;4.83;3.10;;;16.40;84.80;;;;;;5072104;28;21115;-70
2021/05/03 09:35:49;;;;;;;3.30;3.00;;;16.30;83.10;;;;;;5072633;28;20592;-70
2021/05/03 09:38:36;;;;;;;4.87;3.13;;;16.30;85.20;;;;;;5069492;28;20457;-72
2021/05/03 09:41:26;;;;;;;8.37;3.50;;;16.20;85.70;;;;;;5068510;28;20799;-70
2021/05/03 09:44:02;;;;;;;5.07;3.50;;;15.60;87.60;;;;;;5065863;28;20997;-69
2021/05/03 09:46:33;;;;;;;5.00;3.27;;;15.30;90.00;;;;;;5073716;28;20994;-70
2021/05/03 09:49:10;;;;;;;4.60;3.40;;;15.60;88.70;;;;;;5064133;28;20575;-70
2021/05/03 09:51:40;;;;;;;4.60;4.07;;;15.70;88.70;;;;;;5066970;28;20433;-71
2021/05/03 09:54:08;;;;;;;6.87;3.60;;;15.50;87.20;;;;;;5069312;28;20459;-70
2021/05/03 09:56:50;;;;;;;3.20;2.90;;;15.50;86.70;;;;;;5071396;28;20527;-70
2021/05/03 09:59:41;;;;;;;9.97;3.40;;;15.90;87.20;;;;;;5081451;28;21098;-70
2021/05/03 10:02:11;;;;;;;3.93;3.53;;;16.30;88.00;;;;;;5074039;28;21035;-69
2021/05/03 10:04:45;;;;;;;7.53;4.20;;;16.30;86.10;;;;;;5072285;28;20465;-70
2021/05/03 10:07:10;;;;;;;3.87;3.47;;;16.40;88.10;;;;;;5065504;28;20449;-70
2021/05/03 10:09:36;;;;;;;4.73;3.47;;;16.50;89.00;;;;;;5063701;28;20864;-71
2021/05/03 10:12:02;;;;;;;4.20;3.80;;;16.70;87.10;;;;;;5068802;28;20255;-70
2021/05/03 10:14:29;;;;;;;7.43;3.70;;;16.60;88.50;;;;;;5066799;28;20215;-69
2021/05/03 10:16:56;;;;;;;8.13;3.87;;;16.60;86.70;;;;;;5065085;28;20479;-70
2021/05/03 10:19:23;;;;;;;3.53;3.23;;;16.60;85.90;;;;;;5071526;28;20473;-70
2021/05/03 10:21:49;;;;;;;5.60;3.03;;;16.70;86.80;;;;;;5073142;28;20953;-70
2021/05/03 10:24:18;;;;;;;9.30;3.50;;;16.40;83.00;;;;;;5071879;28;20473;-70
2021/05/03 10:26:46;;;;;;;8.87;3.63;;;16.20;83.10;;;;;;5070723;28;20189;-70
2021/05/03 10:29:46;;;;;;;3.63;3.30;;;16.00;83.20;;;;;;5064129;28;20506;-71
2021/05/03 10:32:21;;;;;;;5.90;3.50;;;16.30;83.10;;;;;;5034246;28;20969;-70
2021/05/03 10:34:48;;;;;;;4.40;2.70;;;16.80;82.80;;;;;;5070111;28;20445;-70
2021/05/03 10:37:32;;;;;;;4.20;3.20;;;16.90;82.30;;;;;;5069304;28;20425;-70
2021/05/03 10:40:04;;;;;;;4.30;3.07;;;17.60;82.70;;;;;;5068055;28;20445;-69
2021/05/03 10:42:32;;;;;;;7.50;3.23;;;17.70;81.30;;;;;;5069581;28;20413;-66
2021/05/03 10:47:44;;;;;;;4.10;3.40;;;17.10;82.10;;;;;;5069605;28;21130;-69
2021/05/03 10:50:34;;;;;;;6.47;3.47;;;16.90;82.70;;;;;;5065350;28;20508;-71
2021/05/03 10:55:56;;;;;;;3.40;3.03;;;16.60;83.20;;;;;;5069945;28;20470;-71
2021/05/03 10:58:22;;;;;;;4.50;2.83;;;16.80;85.30;;;;;;5060738;28;20471;-70
2021/05/03 11:01:02;;;;;;;3.30;3.00;;;17.20;86.90;;;;;;5062659;28;20923;-71
2021/05/03 11:03:56;;;;;;;3.33;3.03;;;17.40;83.50;;;;;;5069050;28;20253;-69
2021/05/03 11:06:37;;;;;;;5.17;3.80;;;17.60;83.30;;;;;;5073386;28;20453;-70
2021/05/03 11:09:31;;;;;;;5.53;2.87;;;17.40;82.60;;;;;;5083997;28;20462;-69
2021/05/03 11:12:06;;;;;;;3.27;2.97;;;17.50;81.40;;;;;;5068647;28;20627;-70
2021/05/03 11:14:33;;;;;;;4.87;3.70;;;17.20;81.60;;;;;;5065892;28;20468;-69
2021/05/03 11:17:08;;;;;;;4.37;3.40;;;16.60;80.30;;;;;;5073914;28;20477;-70
2021/05/03 11:22:14;;;;;;;4.80;2.97;;;16.10;81.00;;;;;;5067328;28;20444;-70
2021/05/03 11:24:48;;;;;;;6.07;3.50;;;16.10;82.50;;;;;;5074973;28;20977;-71
2021/05/03 11:27:27;;;;;;;3.33;3.03;;;16.10;82.50;;;;;;5067990;28;20432;-71
2021/05/03 11:30:03;;;;;;;4.10;3.70;;;16.40;83.10;;;;;;5065455;28;20494;-70
2021/05/03 11:32:36;;;;;;;4.27;3.87;;;16.10;81.00;;;;;;5068204;28;20443;-69
2021/05/03 11:35:09;;;;;;;3.83;2.93;;;16.10;81.20;;;;;;5072654;28;20486;-71
2021/05/03 11:37:52;;;;;;;6.70;2.77;;;16.20;82.60;;;;;;5066249;28;20450;-71
2021/05/03 11:40:35;;;;;;;4.20;3.30;;;16.60;78.60;;;;;;5064796;28;20424;-69
2021/05/03 11:45:38;;;;;;;6.30;2.90;;;16.90;79.60;;;;;;5070900;28;20968;-69
2021/05/03 11:48:04;;;;;;;4.13;2.80;;;17.00;76.10;;;;;;5067549;28;20824;-70
2021/05/03 11:50:30;;;;;;;6.10;2.70;;;16.90;76.30;;;;;;5063605;28;20441;-71
2021/05/03 11:52:55;;;;;;;2.93;2.63;;;17.10;78.50;;;;;;5068310;28;20227;-69
2021/05/03 11:55:24;;;;;;;2.67;2.40;;;17.20;79.10;;;;;;5070991;28;20648;-71
2021/05/03 11:57:51;;;;;;;2.60;2.40;;;17.20;76.80;;;;;;5074852;28;20593;-70
2021/05/03 12:00:19;;;;;;;3.00;2.63;;;17.00;76.10;;;;;;5067126;28;20542;-71
2021/05/03 12:02:46;;;;;;;3.80;2.70;;;16.70;76.90;;;;;;5072150;28;20453;-69
2021/05/03 12:05:17;;;;;;;7.70;3.00;;;16.70;76.80;;;;;;5071645;28;20418;-70
2021/05/03 12:07:43;;;;;;;3.20;2.90;;;16.30;77.70;;;;;;5067364;28;20528;-69
2021/05/03 12:10:17;;;;;;;5.73;3.00;;;16.30;77.80;;;;;;5067354;28;20765;-70
2021/05/03 12:12:48;;;;;;;3.43;2.70;;;16.40;77.70;;;;;;5071744;28;20512;-71
2021/05/03 12:15:27;;;;;;;4.83;3.10;;;16.30;77.00;;;;;;5074386;28;21081;-70
2021/05/03 12:17:54;;;;;;;2.90;2.70;;;16.20;76.70;;;;;;5084090;28;21364;-70
2021/05/03 12:20:22;;;;;;;3.50;2.90;;;16.40;77.10;;;;;;5074346;28;20523;-70
2021/05/03 12:22:56;;;;;;;2.97;2.60;;;16.50;76.00;;;;;;5069436;28;20457;-70
2021/05/03 12:25:23;;;;;;;4.03;2.87;;;16.60;74.10;;;;;;5071322;28;21315;-71
2021/05/03 12:27:49;;;;;;;2.90;2.63;;;16.60;74.50;;;;;;5069954;28;21185;-69
2021/05/03 12:30:15;;;;;;;2.50;2.30;;;16.70;75.60;;;;;;5069914;28;20518;-70
2021/05/03 12:32:42;;;;;;;3.47;2.43;;;16.80;74.50;;;;;;5072415;28;20209;-70
2021/05/03 12:35:13;;;;;;;3.50;2.40;;;16.80;75.10;;;;;;5071311;28;20974;-70
2021/05/03 12:37:40;;;;;;;4.00;3.10;;;17.10;74.50;;;;;;5067954;28;21393;-69
2021/05/03 12:40:12;;;;;;;7.20;2.53;;;17.00;73.70;;;;;;5069691;28;20609;-70
2021/05/03 12:42:42;;;;;;;3.33;2.30;;;17.20;74.60;;;;;;5070938;28;20911;-70
2021/05/03 12:45:18;;;;;;;6.63;5.07;;;17.50;74.50;;;;;;5071123;28;20860;-70
2021/05/03 12:50:33;;;;;;;3.67;2.97;;;17.40;73.80;;;;;;5066808;28;20433;-70
2021/05/03 13:07:18;;;;;;;3.43;3.07;;;16.70;73.50;;;;;;5090435;28;20425;-68
2021/05/03 13:22:29;;;;;;;4.10;3.30;;;16.40;73.80;;;;;;5094457;28;20470;-69
2021/05/03 13:29:08;;;;;;;5.47;3.03;;;16.70;74.50;;;;;;5082812;28;20459;-70
2021/05/03 13:31:35;;;;;;;4.07;3.50;;;16.90;74.50;;;;;;5091167;28;20425;-70
2021/05/03 13:34:03;;;;;;;6.27;3.63;;;16.80;72.90;;;;;;5093584;28;20525;-69
2021/05/03 13:36:29;;;;;;;3.60;3.30;;;16.90;74.50;;;;;;5092580;28;20521;-67
2021/05/03 13:38:55;;;;;;;3.60;3.30;;;16.70;74.10;;;;;;5088311;28;20444;-67
2021/05/03 13:41:21;;;;;;;3.27;2.70;;;16.70;75.10;;;;;;5091804;28;20918;-69
2021/05/03 13:43:48;;;;;;;5.93;3.17;;;16.60;75.10;;;;;;5088364;28;20525;-67
2021/05/03 13:46:14;;;;;;;3.80;3.50;;;16.80;75.30;;;;;;5091531;28;20710;-68
2021/05/03 13:48:40;;;;;;;5.43;5.00;;;16.80;75.10;;;;;;5091027;28;20476;-67
2021/05/03 13:51:07;;;;;;;5.97;3.20;;;16.70;76.30;;;;;;5090603;28;20452;-70